Lentia, Austria

11:16 AM CET die 27o March, anno 2015 (GMT +0100)
Linz Urfahr, Austria | | Change Station
CLOSE
Current Station
Personal Weather Stations
Location: Linz, OBERöSTERREICH
Elevation: 892 ft
Nearby Weather Stations

Elev 892 ft 48.32 °N, 14.28 °E | Updated 12 seconds ago

Mostly Cloudy
Plerumque Nubila
46.2 °F
Feels Like 46 °F
N
0.0
Ventus Variabilis Ventus from Inter Austrum et Eurum
Gusts 0.0 mph

Hodie
High -- | Low -- °F
--% Chance of Precip.
Yesterday
High -- | Low -- °F
Precip. -- in
5:52 AM 6:25 PM
Waxing Crescent, 51% visible
Pressio 30.01 in
Visibilitas 6.2 milia passuum
Clouds Few 1200 ft
Nubes Dispersae 1600 ft
Plerumque Nubila 2200 ft
Frigus Venti 46 °F
Frigus in quo Ros apparet 43 °F
Umor 89%
Rainfall 0.33 in
Snow Depth Not available.
UV 0.0 out of 12
Pollen Not available.
Air Quality Not available.
Flu Activity Not available.
METAR LOWL 270950Z 27016KT 9999 FEW012 SCT016 BKN022 07/04 Q1016 NOSIG

More Conditions Fewer Conditions

Pressio 30.01 in
Visibilitas 6.2 milia passuum
Clouds Few 1200 ft
Nubes Dispersae 1600 ft
Plerumque Nubila 2200 ft
Frigus Venti 46 °F
Frigus in quo Ros apparet 43 °F
Umor 89%
Rainfall 0.33 in
Snow Depth Not available.
UV 0.0 out of 12
Pollen Not available.
Air Quality Not available.
Flu Activity Not available.
METAR LOWL 270950Z 27016KT 9999 FEW012 SCT016 BKN022 07/04 Q1016 NOSIG

More Conditions Fewer Conditions

10-Day Weather Forecast

Almanac

Astronomy

Mar. 27, 2015 Rise Set
Actual Time
Civil Twilight
Nautical Twilight
Astronomical Twilight
Moon
Length Of Visible Light
Length of Day
Tomorrow will be .
, % of the Moon is Illuminated

Today's Extremes

Country Highs Country Lows

Community

WunderPhotos

Upload Photos

1,808,705 photos uploaded!

WunderBlogs® & News

Nearby

Air Quality

  Air Quality AQ Index Pollutant
Not available.

Snow Depth

Station Depth Elevation

Earthquake Activity

City Distance Mag. Time & Date
Minimum magnitude displayed is 2.5.

Coastal Water Temperatures

Locus Calor

Stations

Nearby Weather Stations

Station Location Temp Frigus Venti Frigus in quo Ros apparet Umor Ventus Precip. Elev Renovata Type